sensor_id;sensor_type;location;lat;lon;timestamp;P1;durP1;ratioP1;P2;durP2;ratioP2
85196;SDS011;75566;42.698;23.346;2024-03-23T00:53:28;19.75;;;10.32;;
85196;SDS011;75566;42.698;23.346;2024-03-23T00:55:54;17.42;;;10.00;;
85196;SDS011;75566;42.698;23.346;2024-03-23T00:58:19;20.45;;;9.07;;
85196;SDS011;75566;42.698;23.346;2024-03-23T01:00:45;22.17;;;10.50;;
85196;SDS011;75566;42.698;23.346;2024-03-23T01:03:10;20.58;;;10.23;;
85196;SDS011;75566;42.698;23.346;2024-03-23T01:05:36;17.27;;;9.25;;
85196;SDS011;75566;42.698;23.346;2024-03-23T01:08:01;18.13;;;10.20;;
85196;SDS011;75566;42.698;23.346;2024-03-23T01:10:27;17.20;;;10.38;;
85196;SDS011;75566;42.698;23.346;2024-03-23T01:12:52;20.60;;;11.30;;
85196;SDS011;75566;42.698;23.346;2024-03-23T01:15:18;35.92;;;13.40;;
85196;SDS011;75566;42.698;23.346;2024-03-23T01:17:43;37.97;;;17.52;;
85196;SDS011;75566;42.698;23.346;2024-03-23T01:20:09;38.72;;;15.95;;
85196;SDS011;75566;42.698;23.346;2024-03-23T01:22:34;37.78;;;16.75;;
85196;SDS011;75566;42.698;23.346;2024-03-23T01:25:00;38.53;;;17.00;;
85196;SDS011;75566;42.698;23.346;2024-03-23T01:27:25;34.67;;;16.50;;
85196;SDS011;75566;42.698;23.346;2024-03-23T01:29:51;34.70;;;16.02;;
85196;SDS011;75566;42.698;23.346;2024-03-23T01:32:17;34.70;;;13.82;;
85196;SDS011;75566;42.698;23.346;2024-03-23T01:34:43;30.58;;;13.77;;
85196;SDS011;75566;42.698;23.346;2024-03-23T01:37:09;32.67;;;14.55;;
85196;SDS011;75566;42.698;23.346;2024-03-23T01:39:35;29.35;;;13.80;;
85196;SDS011;75566;42.698;23.346;2024-03-23T01:42:00;33.75;;;15.02;;
85196;SDS011;75566;42.698;23.346;2024-03-23T01:44:25;34.08;;;15.38;;
85196;SDS011;75566;42.698;23.346;2024-03-23T01:46:51;30.67;;;15.70;;
85196;SDS011;75566;42.698;23.346;2024-03-23T01:49:17;30.20;;;14.90;;
85196;SDS011;75566;42.698;23.346;2024-03-23T01:51:42;27.48;;;14.25;;
85196;SDS011;75566;42.698;23.346;2024-03-23T01:54:09;33.67;;;16.08;;
85196;SDS011;75566;42.698;23.346;2024-03-23T01:56:35;31.17;;;14.73;;
85196;SDS011;75566;42.698;23.346;2024-03-23T01:59:01;28.98;;;13.93;;
85196;SDS011;75566;42.698;23.346;2024-03-23T02:01:27;25.25;;;13.80;;
85196;SDS011;75566;42.698;23.346;2024-03-23T02:03:53;26.27;;;12.88;;
85196;SDS011;75566;42.698;23.346;2024-03-23T02:06:18;22.52;;;11.63;;
85196;SDS011;75566;42.698;23.346;2024-03-23T02:08:44;28.17;;;12.00;;
85196;SDS011;75566;42.698;23.346;2024-03-23T02:11:10;26.90;;;12.25;;
85196;SDS011;75566;42.698;23.346;2024-03-23T02:13:35;24.38;;;12.30;;
85196;SDS011;75566;42.698;23.346;2024-03-23T02:16:01;26.60;;;12.18;;
85196;SDS011;75566;42.698;23.346;2024-03-23T02:18:26;22.80;;;11.40;;
85196;SDS011;75566;42.698;23.346;2024-03-23T02:20:52;26.00;;;11.57;;
85196;SDS011;75566;42.698;23.346;2024-03-23T02:23:17;24.10;;;12.57;;
85196;SDS011;75566;42.698;23.346;2024-03-23T02:25:43;20.63;;;10.70;;
85196;SDS011;75566;42.698;23.346;2024-03-23T02:28:10;22.45;;;11.10;;
85196;SDS011;75566;42.698;23.346;2024-03-23T02:30:35;15.93;;;8.40;;
85196;SDS011;75566;42.698;23.346;2024-03-23T02:33:01;18.40;;;9.35;;
85196;SDS011;75566;42.698;23.346;2024-03-23T02:35:27;13.07;;;6.57;;
85196;SDS011;75566;42.698;23.346;2024-03-23T02:37:52;13.73;;;6.95;;
85196;SDS011;75566;42.698;23.346;2024-03-23T02:40:19;18.52;;;7.65;;
85196;SDS011;75566;42.698;23.346;2024-03-23T02:42:45;21.65;;;9.27;;
85196;SDS011;75566;42.698;23.346;2024-03-23T02:45:11;19.48;;;10.25;;
85196;SDS011;75566;42.698;23.346;2024-03-23T02:47:37;23.75;;;9.88;;
85196;SDS011;75566;42.698;23.346;2024-03-23T02:50:02;15.35;;;9.18;;
85196;SDS011;75566;42.698;23.346;2024-03-23T02:52:29;20.58;;;8.75;;
85196;SDS011;75566;42.698;23.346;2024-03-23T02:54:55;17.95;;;8.50;;
85196;SDS011;75566;42.698;23.346;2024-03-23T02:57:20;14.13;;;6.75;;
85196;SDS011;75566;42.698;23.346;2024-03-23T02:59:46;14.65;;;7.15;;
85196;SDS011;75566;42.698;23.346;2024-03-23T03:02:12;17.58;;;8.50;;
85196;SDS011;75566;42.698;23.346;2024-03-23T03:04:38;16.38;;;7.30;;
85196;SDS011;75566;42.698;23.346;2024-03-23T03:07:03;14.07;;;7.60;;
85196;SDS011;75566;42.698;23.346;2024-03-23T03:09:29;15.23;;;8.05;;
85196;SDS011;75566;42.698;23.346;2024-03-23T03:11:55;17.15;;;7.65;;
85196;SDS011;75566;42.698;23.346;2024-03-23T03:14:20;14.45;;;7.18;;
85196;SDS011;75566;42.698;23.346;2024-03-23T03:16:46;19.40;;;7.28;;
85196;SDS011;75566;42.698;23.346;2024-03-23T03:19:11;13.32;;;7.72;;
85196;SDS011;75566;42.698;23.346;2024-03-23T03:21:37;16.33;;;8.05;;
85196;SDS011;75566;42.698;23.346;2024-03-23T03:24:03;16.40;;;8.23;;
85196;SDS011;75566;42.698;23.346;2024-03-23T03:26:31;13.45;;;7.45;;
85196;SDS011;75566;42.698;23.346;2024-03-23T03:28:57;11.43;;;7.32;;
85196;SDS011;75566;42.698;23.346;2024-03-23T03:31:22;15.05;;;7.65;;
85196;SDS011;75566;42.698;23.346;2024-03-23T03:33:49;11.70;;;6.85;;
85196;SDS011;75566;42.698;23.346;2024-03-23T03:36:15;14.88;;;8.02;;
85196;SDS011;75566;42.698;23.346;2024-03-23T03:38:40;15.05;;;7.10;;
85196;SDS011;75566;42.698;23.346;2024-03-23T03:41:06;14.60;;;7.70;;
85196;SDS011;75566;42.698;23.346;2024-03-23T03:43:31;10.20;;;5.45;;
85196;SDS011;75566;42.698;23.346;2024-03-23T03:45:58;13.18;;;7.53;;
85196;SDS011;75566;42.698;23.346;2024-03-23T03:48:25;11.40;;;6.43;;
85196;SDS011;75566;42.698;23.346;2024-03-23T03:50:51;12.93;;;6.55;;
85196;SDS011;75566;42.698;23.346;2024-03-23T03:53:18;12.07;;;6.70;;
85196;SDS011;75566;42.698;23.346;2024-03-23T03:55:44;12.65;;;7.45;;
85196;SDS011;75566;42.698;23.346;2024-03-23T03:58:09;14.00;;;6.97;;
85196;SDS011;75566;42.698;23.346;2024-03-23T04:00:35;13.95;;;7.45;;
85196;SDS011;75566;42.698;23.346;2024-03-23T04:03:00;11.77;;;7.03;;
85196;SDS011;75566;42.698;23.346;2024-03-23T04:05:26;13.38;;;7.55;;
85196;SDS011;75566;42.698;23.346;2024-03-23T04:07:52;10.50;;;6.18;;
85196;SDS011;75566;42.698;23.346;2024-03-23T04:10:18;12.18;;;6.20;;
85196;SDS011;75566;42.698;23.346;2024-03-23T04:12:43;14.35;;;6.93;;
85196;SDS011;75566;42.698;23.346;2024-03-23T04:15:10;12.82;;;6.30;;
85196;SDS011;75566;42.698;23.346;2024-03-23T04:17:35;12.32;;;7.45;;
85196;SDS011;75566;42.698;23.346;2024-03-23T04:20:01;13.35;;;6.95;;
85196;SDS011;75566;42.698;23.346;2024-03-23T04:22:29;15.35;;;7.65;;
85196;SDS011;75566;42.698;23.346;2024-03-23T04:24:55;14.45;;;7.00;;
85196;SDS011;75566;42.698;23.346;2024-03-23T04:27:21;17.80;;;7.70;;
85196;SDS011;75566;42.698;23.346;2024-03-23T04:29:51;13.02;;;6.88;;
85196;SDS011;75566;42.698;23.346;2024-03-23T04:32:17;15.25;;;7.78;;
85196;SDS011;75566;42.698;23.346;2024-03-23T04:34:43;12.10;;;7.22;;
85196;SDS011;75566;42.698;23.346;2024-03-23T04:37:09;12.45;;;7.03;;
85196;SDS011;75566;42.698;23.346;2024-03-23T04:39:38;19.63;;;7.18;;
85196;SDS011;75566;42.698;23.346;2024-03-23T04:42:04;14.10;;;7.72;;
85196;SDS011;75566;42.698;23.346;2024-03-23T04:44:30;16.23;;;6.88;;
85196;SDS011;75566;42.698;23.346;2024-03-23T04:46:56;18.02;;;8.23;;
85196;SDS011;75566;42.698;23.346;2024-03-23T04:49:22;14.80;;;7.82;;
85196;SDS011;75566;42.698;23.346;2024-03-23T04:51:47;16.23;;;7.90;;
85196;SDS011;75566;42.698;23.346;2024-03-23T04:54:13;19.60;;;8.00;;
85196;SDS011;75566;42.698;23.346;2024-03-23T04:56:38;15.40;;;7.60;;
85196;SDS011;75566;42.698;23.346;2024-03-23T04:59:04;15.93;;;7.15;;
85196;SDS011;75566;42.698;23.346;2024-03-23T05:01:30;12.77;;;6.85;;
85196;SDS011;75566;42.698;23.346;2024-03-23T05:03:58;12.20;;;6.30;;
85196;SDS011;75566;42.698;23.346;2024-03-23T05:06:24;12.05;;;6.68;;
85196;SDS011;75566;42.698;23.346;2024-03-23T05:08:53;14.70;;;7.03;;
85196;SDS011;75566;42.698;23.346;2024-03-23T05:11:19;14.40;;;6.75;;
85196;SDS011;75566;42.698;23.346;2024-03-23T05:13:45;12.93;;;7.07;;
85196;SDS011;75566;42.698;23.346;2024-03-23T05:16:11;14.18;;;7.20;;
85196;SDS011;75566;42.698;23.346;2024-03-23T05:18:37;16.73;;;7.65;;
85196;SDS011;75566;42.698;23.346;2024-03-23T05:21:02;12.05;;;6.57;;
85196;SDS011;75566;42.698;23.346;2024-03-23T05:23:28;10.93;;;6.82;;
85196;SDS011;75566;42.698;23.346;2024-03-23T05:25:54;14.00;;;7.30;;
85196;SDS011;75566;42.698;23.346;2024-03-23T05:28:20;18.60;;;7.40;;
85196;SDS011;75566;42.698;23.346;2024-03-23T05:30:50;17.33;;;7.82;;
85196;SDS011;75566;42.698;23.346;2024-03-23T05:33:18;15.95;;;7.95;;
85196;SDS011;75566;42.698;23.346;2024-03-23T05:35:43;12.07;;;6.63;;
85196;SDS011;75566;42.698;23.346;2024-03-23T05:38:09;12.50;;;7.80;;
85196;SDS011;75566;42.698;23.346;2024-03-23T05:40:34;17.70;;;7.28;;
85196;SDS011;75566;42.698;23.346;2024-03-23T05:43:02;15.48;;;7.90;;
85196;SDS011;75566;42.698;23.346;2024-03-23T05:45:28;13.48;;;7.03;;
85196;SDS011;75566;42.698;23.346;2024-03-23T05:47:54;14.85;;;7.30;;
85196;SDS011;75566;42.698;23.346;2024-03-23T05:50:21;19.25;;;9.55;;
85196;SDS011;75566;42.698;23.346;2024-03-23T05:52:47;23.42;;;9.98;;
85196;SDS011;75566;42.698;23.346;2024-03-23T05:55:13;14.90;;;8.02;;
85196;SDS011;75566;42.698;23.346;2024-03-23T05:57:38;22.13;;;9.63;;
85196;SDS011;75566;42.698;23.346;2024-03-23T06:00:04;21.50;;;10.48;;
85196;SDS011;75566;42.698;23.346;2024-03-23T06:02:35;27.45;;;11.82;;
85196;SDS011;75566;42.698;23.346;2024-03-23T06:05:00;31.00;;;12.73;;
85196;SDS011;75566;42.698;23.346;2024-03-23T06:07:27;23.85;;;11.10;;
85196;SDS011;75566;42.698;23.346;2024-03-23T06:09:52;22.42;;;11.18;;
85196;SDS011;75566;42.698;23.346;2024-03-23T06:12:18;26.95;;;11.65;;
85196;SDS011;75566;42.698;23.346;2024-03-23T06:14:43;25.58;;;11.82;;
85196;SDS011;75566;42.698;23.346;2024-03-23T06:17:09;28.00;;;10.63;;
85196;SDS011;75566;42.698;23.346;2024-03-23T06:19:34;20.80;;;10.25;;
85196;SDS011;75566;42.698;23.346;2024-03-23T06:22:00;21.05;;;10.30;;
85196;SDS011;75566;42.698;23.346;2024-03-23T06:24:25;23.17;;;10.60;;
85196;SDS011;75566;42.698;23.346;2024-03-23T06:26:51;17.67;;;9.63;;
85196;SDS011;75566;42.698;23.346;2024-03-23T06:29:16;21.13;;;10.88;;
85196;SDS011;75566;42.698;23.346;2024-03-23T06:31:42;22.63;;;10.30;;
85196;SDS011;75566;42.698;23.346;2024-03-23T06:34:07;20.25;;;9.88;;
85196;SDS011;75566;42.698;23.346;2024-03-23T06:36:33;23.45;;;11.30;;
85196;SDS011;75566;42.698;23.346;2024-03-23T06:38:58;21.80;;;10.15;;
85196;SDS011;75566;42.698;23.346;2024-03-23T06:41:24;20.50;;;10.50;;
85196;SDS011;75566;42.698;23.346;2024-03-23T06:43:50;19.88;;;11.15;;
85196;SDS011;75566;42.698;23.346;2024-03-23T06:46:16;20.73;;;9.68;;
85196;SDS011;75566;42.698;23.346;2024-03-23T06:48:41;19.15;;;10.63;;
85196;SDS011;75566;42.698;23.346;2024-03-23T06:51:07;22.55;;;12.00;;
85196;SDS011;75566;42.698;23.346;2024-03-23T06:53:32;25.40;;;12.68;;
85196;SDS011;75566;42.698;23.346;2024-03-23T06:55:58;22.77;;;11.98;;
85196;SDS011;75566;42.698;23.346;2024-03-23T06:58:24;22.92;;;11.95;;
85196;SDS011;75566;42.698;23.346;2024-03-23T07:00:50;28.13;;;12.05;;
85196;SDS011;75566;42.698;23.346;2024-03-23T07:03:18;20.10;;;11.45;;
85196;SDS011;75566;42.698;23.346;2024-03-23T07:05:44;24.52;;;13.15;;
85196;SDS011;75566;42.698;23.346;2024-03-23T07:08:11;24.17;;;11.40;;
85196;SDS011;75566;42.698;23.346;2024-03-23T07:10:39;26.88;;;12.98;;
85196;SDS011;75566;42.698;23.346;2024-03-23T07:13:05;25.05;;;12.63;;
85196;SDS011;75566;42.698;23.346;2024-03-23T07:15:30;23.52;;;12.43;;
85196;SDS011;75566;42.698;23.346;2024-03-23T07:17:56;23.90;;;11.98;;
85196;SDS011;75566;42.698;23.346;2024-03-23T07:20:22;20.50;;;10.95;;
85196;SDS011;75566;42.698;23.346;2024-03-23T07:22:47;21.42;;;11.73;;
85196;SDS011;75566;42.698;23.346;2024-03-23T07:25:14;31.33;;;11.77;;
85196;SDS011;75566;42.698;23.346;2024-03-23T07:27:39;18.67;;;10.68;;
85196;SDS011;75566;42.698;23.346;2024-03-23T07:30:05;22.13;;;11.23;;
85196;SDS011;75566;42.698;23.346;2024-03-23T07:32:32;20.73;;;11.10;;
85196;SDS011;75566;42.698;23.346;2024-03-23T07:34:57;21.88;;;11.35;;
85196;SDS011;75566;42.698;23.346;2024-03-23T07:37:23;25.55;;;11.88;;
85196;SDS011;75566;42.698;23.346;2024-03-23T07:39:48;19.58;;;10.93;;
85196;SDS011;75566;42.698;23.346;2024-03-23T07:42:14;19.65;;;11.73;;
85196;SDS011;75566;42.698;23.346;2024-03-23T07:44:39;23.98;;;13.00;;
85196;SDS011;75566;42.698;23.346;2024-03-23T07:47:05;19.60;;;11.95;;
85196;SDS011;75566;42.698;23.346;2024-03-23T07:49:30;24.35;;;11.25;;
85196;SDS011;75566;42.698;23.346;2024-03-23T07:51:56;20.80;;;10.95;;
85196;SDS011;75566;42.698;23.346;2024-03-23T07:54:21;20.92;;;11.05;;
85196;SDS011;75566;42.698;23.346;2024-03-23T07:56:47;18.60;;;11.02;;
85196;SDS011;75566;42.698;23.346;2024-03-23T07:59:12;22.60;;;11.45;;
85196;SDS011;75566;42.698;23.346;2024-03-23T08:01:38;29.55;;;10.35;;
85196;SDS011;75566;42.698;23.346;2024-03-23T08:04:03;22.80;;;13.23;;
85196;SDS011;75566;42.698;23.346;2024-03-23T08:06:29;20.90;;;12.35;;
85196;SDS011;75566;42.698;23.346;2024-03-23T08:08:55;20.10;;;11.05;;
85196;SDS011;75566;42.698;23.346;2024-03-23T08:11:27;22.58;;;10.27;;
85196;SDS011;75566;42.698;23.346;2024-03-23T08:13:54;18.10;;;11.68;;
85196;SDS011;75566;42.698;23.346;2024-03-23T08:16:20;23.60;;;12.15;;
85196;SDS011;75566;42.698;23.346;2024-03-23T08:18:46;25.60;;;11.80;;
85196;SDS011;75566;42.698;23.346;2024-03-23T08:21:11;19.33;;;11.70;;
85196;SDS011;75566;42.698;23.346;2024-03-23T08:23:37;23.55;;;12.05;;
85196;SDS011;75566;42.698;23.346;2024-03-23T08:26:06;35.03;;;12.35;;
85196;SDS011;75566;42.698;23.346;2024-03-23T08:28:33;22.35;;;12.27;;
85196;SDS011;75566;42.698;23.346;2024-03-23T08:31:04;21.05;;;11.93;;
85196;SDS011;75566;42.698;23.346;2024-03-23T08:33:33;19.80;;;10.98;;
85196;SDS011;75566;42.698;23.346;2024-03-23T08:36:00;18.67;;;11.02;;
85196;SDS011;75566;42.698;23.346;2024-03-23T08:38:29;28.83;;;11.43;;
85196;SDS011;75566;42.698;23.346;2024-03-23T08:40:58;17.70;;;11.20;;
85196;SDS011;75566;42.698;23.346;2024-03-23T08:43:25;25.45;;;12.70;;
85196;SDS011;75566;42.698;23.346;2024-03-23T08:45:50;29.50;;;12.20;;
85196;SDS011;75566;42.698;23.346;2024-03-23T08:48:17;19.17;;;11.70;;
85196;SDS011;75566;42.698;23.346;2024-03-23T08:50:43;34.00;;;12.30;;
85196;SDS011;75566;42.698;23.346;2024-03-23T08:53:08;15.88;;;10.45;;
85196;SDS011;75566;42.698;23.346;2024-03-23T08:55:34;17.90;;;11.15;;
85196;SDS011;75566;42.698;23.346;2024-03-23T08:58:00;22.38;;;10.43;;
85196;SDS011;75566;42.698;23.346;2024-03-23T09:00:26;17.23;;;10.52;;
85196;SDS011;75566;42.698;23.346;2024-03-23T09:02:51;20.42;;;10.88;;
85196;SDS011;75566;42.698;23.346;2024-03-23T09:05:18;16.17;;;9.27;;
85196;SDS011;75566;42.698;23.346;2024-03-23T09:07:43;15.60;;;10.32;;
85196;SDS011;75566;42.698;23.346;2024-03-23T09:10:09;19.20;;;10.90;;
85196;SDS011;75566;42.698;23.346;2024-03-23T09:12:34;18.33;;;11.15;;
85196;SDS011;75566;42.698;23.346;2024-03-23T09:15:00;14.18;;;9.77;;
85196;SDS011;75566;42.698;23.346;2024-03-23T09:17:25;23.67;;;10.40;;
85196;SDS011;75566;42.698;23.346;2024-03-23T09:19:51;16.42;;;10.13;;
85196;SDS011;75566;42.698;23.346;2024-03-23T09:22:16;19.85;;;10.18;;
85196;SDS011;75566;42.698;23.346;2024-03-23T09:24:41;24.02;;;10.98;;
85196;SDS011;75566;42.698;23.346;2024-03-23T09:27:07;14.55;;;9.43;;
85196;SDS011;75566;42.698;23.346;2024-03-23T09:29:33;18.35;;;11.00;;
85196;SDS011;75566;42.698;23.346;2024-03-23T09:31:58;15.40;;;9.07;;
85196;SDS011;75566;42.698;23.346;2024-03-23T09:34:24;16.35;;;9.55;;
85196;SDS011;75566;42.698;23.346;2024-03-23T09:36:52;34.63;;;10.02;;
85196;SDS011;75566;42.698;23.346;2024-03-23T09:39:18;17.35;;;10.38;;
85196;SDS011;75566;42.698;23.346;2024-03-23T09:41:44;16.73;;;9.55;;
85196;SDS011;75566;42.698;23.346;2024-03-23T09:44:10;17.30;;;9.18;;
85196;SDS011;75566;42.698;23.346;2024-03-23T09:46:36;15.27;;;9.38;;
85196;SDS011;75566;42.698;23.346;2024-03-23T09:49:04;20.05;;;10.57;;
85196;SDS011;75566;42.698;23.346;2024-03-23T09:51:34;19.40;;;9.73;;
85196;SDS011;75566;42.698;23.346;2024-03-23T09:54:00;18.83;;;9.57;;
85196;SDS011;75566;42.698;23.346;2024-03-23T09:56:26;14.07;;;9.38;;
85196;SDS011;75566;42.698;23.346;2024-03-23T09:58:52;20.55;;;10.13;;
85196;SDS011;75566;42.698;23.346;2024-03-23T10:01:25;19.23;;;9.60;;
85196;SDS011;75566;42.698;23.346;2024-03-23T10:03:51;15.85;;;10.05;;
85196;SDS011;75566;42.698;23.346;2024-03-23T10:06:16;19.52;;;10.00;;
85196;SDS011;75566;42.698;23.346;2024-03-23T10:08:46;19.40;;;10.02;;
85196;SDS011;75566;42.698;23.346;2024-03-23T10:11:15;19.90;;;11.32;;
85196;SDS011;75566;42.698;23.346;2024-03-23T10:13:42;16.90;;;9.82;;
85196;SDS011;75566;42.698;23.346;2024-03-23T10:16:09;18.60;;;10.32;;
85196;SDS011;75566;42.698;23.346;2024-03-23T10:18:38;21.10;;;9.77;;
85196;SDS011;75566;42.698;23.346;2024-03-23T10:21:10;12.73;;;8.25;;
85196;SDS011;75566;42.698;23.346;2024-03-23T10:23:37;11.85;;;7.75;;
85196;SDS011;75566;42.698;23.346;2024-03-23T10:28:54;14.68;;;9.18;;
85196;SDS011;75566;42.698;23.346;2024-03-23T10:31:26;13.38;;;9.15;;
85196;SDS011;75566;42.698;23.346;2024-03-23T10:33:54;11.80;;;8.43;;
85196;SDS011;75566;42.698;23.346;2024-03-23T10:36:20;15.63;;;8.77;;
85196;SDS011;75566;42.698;23.346;2024-03-23T10:38:46;21.95;;;9.05;;
85196;SDS011;75566;42.698;23.346;2024-03-23T10:41:14;9.90;;;6.40;;
85196;SDS011;75566;42.698;23.346;2024-03-23T10:43:40;14.52;;;7.50;;
85196;SDS011;75566;42.698;23.346;2024-03-23T10:46:07;14.95;;;7.43;;
85196;SDS011;75566;42.698;23.346;2024-03-23T10:48:34;13.82;;;8.40;;
85196;SDS011;75566;42.698;23.346;2024-03-23T10:51:00;12.15;;;6.57;;
85196;SDS011;75566;42.698;23.346;2024-03-23T10:53:26;14.95;;;7.28;;
85196;SDS011;75566;42.698;23.346;2024-03-23T10:55:52;11.48;;;6.82;;
85196;SDS011;75566;42.698;23.346;2024-03-23T10:58:33;9.35;;;6.93;;
85196;SDS011;75566;42.698;23.346;2024-03-23T11:01:03;15.20;;;7.72;;
85196;SDS011;75566;42.698;23.346;2024-03-23T11:03:35;15.15;;;8.55;;
85196;SDS011;75566;42.698;23.346;2024-03-23T11:06:03;12.15;;;7.05;;
85196;SDS011;75566;42.698;23.346;2024-03-23T11:08:29;10.25;;;7.18;;
85196;SDS011;75566;42.698;23.346;2024-03-23T11:13:58;17.38;;;6.95;;
85196;SDS011;75566;42.698;23.346;2024-03-23T11:16:28;11.57;;;7.18;;
85196;SDS011;75566;42.698;23.346;2024-03-23T11:22:05;13.02;;;8.85;;
85196;SDS011;75566;42.698;23.346;2024-03-23T11:24:31;17.70;;;8.90;;
85196;SDS011;75566;42.698;23.346;2024-03-23T11:26:57;10.50;;;6.95;;
85196;SDS011;75566;42.698;23.346;2024-03-23T11:29:26;13.63;;;6.68;;
85196;SDS011;75566;42.698;23.346;2024-03-23T11:31:52;12.27;;;6.70;;
85196;SDS011;75566;42.698;23.346;2024-03-23T11:34:19;14.00;;;7.10;;
85196;SDS011;75566;42.698;23.346;2024-03-23T11:36:45;11.02;;;6.63;;
85196;SDS011;75566;42.698;23.346;2024-03-23T11:39:15;13.30;;;8.05;;
85196;SDS011;75566;42.698;23.346;2024-03-23T11:41:48;12.27;;;6.75;;
85196;SDS011;75566;42.698;23.346;2024-03-23T11:44:21;11.85;;;7.85;;
85196;SDS011;75566;42.698;23.346;2024-03-23T11:46:48;14.25;;;6.97;;
85196;SDS011;75566;42.698;23.346;2024-03-23T11:54:16;10.57;;;6.38;;
85196;SDS011;75566;42.698;23.346;2024-03-23T11:57:02;10.82;;;6.45;;
85196;SDS011;75566;42.698;23.346;2024-03-23T12:01:58;7.60;;;6.05;;
85196;SDS011;75566;42.698;23.346;2024-03-23T12:04:27;23.52;;;11.93;;
85196;SDS011;75566;42.698;23.346;2024-03-23T12:07:12;10.85;;;6.93;;
85196;SDS011;75566;42.698;23.346;2024-03-23T12:09:38;8.82;;;5.88;;
85196;SDS011;75566;42.698;23.346;2024-03-23T12:12:05;9.35;;;6.80;;
85196;SDS011;75566;42.698;23.346;2024-03-23T12:15:00;14.48;;;7.32;;
85196;SDS011;75566;42.698;23.346;2024-03-23T12:17:27;10.95;;;5.88;;
85196;SDS011;75566;42.698;23.346;2024-03-23T12:19:53;11.65;;;7.18;;
85196;SDS011;75566;42.698;23.346;2024-03-23T12:22:22;16.92;;;9.88;;
85196;SDS011;75566;42.698;23.346;2024-03-23T12:24:49;9.45;;;6.68;;
85196;SDS011;75566;42.698;23.346;2024-03-23T12:27:14;10.57;;;6.07;;
85196;SDS011;75566;42.698;23.346;2024-03-23T12:29:40;10.57;;;6.18;;
85196;SDS011;75566;42.698;23.346;2024-03-23T12:32:11;9.95;;;6.05;;
85196;SDS011;75566;42.698;23.346;2024-03-23T12:34:37;9.05;;;6.50;;
85196;SDS011;75566;42.698;23.346;2024-03-23T12:37:03;12.90;;;6.20;;
85196;SDS011;75566;42.698;23.346;2024-03-23T12:39:29;14.77;;;7.32;;
85196;SDS011;75566;42.698;23.346;2024-03-23T12:41:55;8.32;;;5.25;;
85196;SDS011;75566;42.698;23.346;2024-03-23T12:44:20;7.78;;;6.20;;
85196;SDS011;75566;42.698;23.346;2024-03-23T12:46:46;8.07;;;5.10;;
85196;SDS011;75566;42.698;23.346;2024-03-23T12:49:12;6.65;;;5.20;;
85196;SDS011;75566;42.698;23.346;2024-03-23T12:51:37;5.93;;;4.38;;
85196;SDS011;75566;42.698;23.346;2024-03-23T12:54:03;9.02;;;5.07;;
85196;SDS011;75566;42.698;23.346;2024-03-23T12:56:29;8.57;;;4.32;;
85196;SDS011;75566;42.698;23.346;2024-03-23T12:58:55;6.53;;;5.18;;
85196;SDS011;75566;42.698;23.346;2024-03-23T13:01:25;3.60;;;3.30;;
85196;SDS011;75566;42.698;23.346;2024-03-23T13:06:16;5.00;;;3.50;;
85196;SDS011;75566;42.698;23.346;2024-03-23T13:08:46;4.65;;;3.30;;
85196;SDS011;75566;42.698;23.346;2024-03-23T13:11:12;3.83;;;2.70;;
85196;SDS011;75566;42.698;23.346;2024-03-23T13:13:39;4.63;;;3.13;;
85196;SDS011;75566;42.698;23.346;2024-03-23T13:16:06;3.70;;;3.30;;
85196;SDS011;75566;42.698;23.346;2024-03-23T13:18:32;4.90;;;3.97;;
85196;SDS011;75566;42.698;23.346;2024-03-23T13:20:58;3.75;;;3.25;;
85196;SDS011;75566;42.698;23.346;2024-03-23T13:23:24;4.90;;;3.15;;
85196;SDS011;75566;42.698;23.346;2024-03-23T13:25:53;5.40;;;2.20;;
85196;SDS011;75566;42.698;23.346;2024-03-23T13:28:22;2.90;;;2.30;;
85196;SDS011;75566;42.698;23.346;2024-03-23T13:30:54;5.40;;;2.85;;
85196;SDS011;75566;42.698;23.346;2024-03-23T13:33:21;2.17;;;1.70;;
85196;SDS011;75566;42.698;23.346;2024-03-23T13:38:16;4.05;;;1.70;;
85196;SDS011;75566;42.698;23.346;2024-03-23T13:40:57;2.05;;;1.50;;
85196;SDS011;75566;42.698;23.346;2024-03-23T13:43:25;1.58;;;1.48;;
85196;SDS011;75566;42.698;23.346;2024-03-23T13:45:54;1.45;;;1.35;;
85196;SDS011;75566;42.698;23.346;2024-03-23T13:48:22;2.50;;;1.70;;
85196;SDS011;75566;42.698;23.346;2024-03-23T13:51:02;1.60;;;1.48;;
85196;SDS011;75566;42.698;23.346;2024-03-23T13:53:29;1.25;;;1.15;;
85196;SDS011;75566;42.698;23.346;2024-03-23T13:55:55;2.05;;;1.83;;
85196;SDS011;75566;42.698;23.346;2024-03-23T13:58:20;2.50;;;2.03;;
85196;SDS011;75566;42.698;23.346;2024-03-23T14:00:46;1.42;;;1.33;;
85196;SDS011;75566;42.698;23.346;2024-03-23T14:03:13;2.65;;;1.63;;
85196;SDS011;75566;42.698;23.346;2024-03-23T14:05:39;2.53;;;2.15;;
85196;SDS011;75566;42.698;23.346;2024-03-23T14:08:06;2.90;;;2.10;;
85196;SDS011;75566;42.698;23.346;2024-03-23T14:10:34;3.95;;;2.08;;
85196;SDS011;75566;42.698;23.346;2024-03-23T14:13:04;1.75;;;1.65;;
85196;SDS011;75566;42.698;23.346;2024-03-23T14:15:29;2.40;;;2.20;;
85196;SDS011;75566;42.698;23.346;2024-03-23T14:17:55;6.82;;;3.00;;
85196;SDS011;75566;42.698;23.346;2024-03-23T14:20:21;1.48;;;1.38;;
85196;SDS011;75566;42.698;23.346;2024-03-23T14:22:48;1.40;;;1.30;;
85196;SDS011;75566;42.698;23.346;2024-03-23T14:25:14;2.25;;;1.60;;
85196;SDS011;75566;42.698;23.346;2024-03-23T14:27:39;2.22;;;1.80;;
85196;SDS011;75566;42.698;23.346;2024-03-23T14:30:05;2.63;;;2.08;;
85196;SDS011;75566;42.698;23.346;2024-03-23T14:32:31;1.75;;;1.65;;
85196;SDS011;75566;42.698;23.346;2024-03-23T14:35:00;2.40;;;2.20;;
85196;SDS011;75566;42.698;23.346;2024-03-23T14:37:26;2.97;;;2.60;;
85196;SDS011;75566;42.698;23.346;2024-03-23T14:39:51;2.97;;;2.67;;
85196;SDS011;75566;42.698;23.346;2024-03-23T14:42:17;3.55;;;2.97;;
85196;SDS011;75566;42.698;23.346;2024-03-23T14:44:43;3.97;;;2.08;;
85196;SDS011;75566;42.698;23.346;2024-03-23T14:47:08;3.25;;;2.92;;
85196;SDS011;75566;42.698;23.346;2024-03-23T14:49:34;4.35;;;3.63;;
85196;SDS011;75566;42.698;23.346;2024-03-23T14:51:59;2.40;;;2.30;;
85196;SDS011;75566;42.698;23.346;2024-03-23T14:54:25;3.03;;;2.65;;
85196;SDS011;75566;42.698;23.346;2024-03-23T14:56:50;5.28;;;2.53;;
85196;SDS011;75566;42.698;23.346;2024-03-23T14:59:16;3.42;;;2.30;;
85196;SDS011;75566;42.698;23.346;2024-03-23T15:01:41;3.15;;;2.75;;
85196;SDS011;75566;42.698;23.346;2024-03-23T15:04:06;2.35;;;2.20;;
85196;SDS011;75566;42.698;23.346;2024-03-23T15:06:33;3.65;;;2.70;;
85196;SDS011;75566;42.698;23.346;2024-03-23T15:08:59;5.50;;;3.42;;
85196;SDS011;75566;42.698;23.346;2024-03-23T15:11:24;2.97;;;2.70;;
85196;SDS011;75566;42.698;23.346;2024-03-23T15:13:50;5.93;;;2.85;;
85196;SDS011;75566;42.698;23.346;2024-03-23T15:16:19;3.60;;;3.13;;
85196;SDS011;75566;42.698;23.346;2024-03-23T15:18:47;5.40;;;2.75;;
85196;SDS011;75566;42.698;23.346;2024-03-23T15:21:13;4.32;;;2.55;;
85196;SDS011;75566;42.698;23.346;2024-03-23T15:23:44;3.88;;;2.60;;
85196;SDS011;75566;42.698;23.346;2024-03-23T15:26:10;6.30;;;3.10;;
85196;SDS011;75566;42.698;23.346;2024-03-23T15:28:36;3.17;;;2.85;;